sensor_id;sensor_type;location;lat;lon;timestamp;P1;durP1;ratioP1;P2;durP2;ratioP2
29504;SDS011;16452;54.174;12.092;2022-12-29T00:02:15;6.82;;;3.20;;
29504;SDS011;16452;54.174;12.092;2022-12-29T00:04:41;6.38;;;2.90;;
29504;SDS011;16452;54.174;12.092;2022-12-29T00:07:08;4.15;;;3.20;;
29504;SDS011;16452;54.174;12.092;2022-12-29T00:09:34;3.42;;;2.45;;
29504;SDS011;16452;54.174;12.092;2022-12-29T00:12:01;5.97;;;3.30;;
29504;SDS011;16452;54.174;12.092;2022-12-29T00:14:31;6.72;;;3.15;;
29504;SDS011;16452;54.174;12.092;2022-12-29T00:17:16;5.43;;;3.17;;
29504;SDS011;16452;54.174;12.092;2022-12-29T00:19:41;3.72;;;3.00;;
29504;SDS011;16452;54.174;12.092;2022-12-29T00:22:25;5.18;;;3.15;;
29504;SDS011;16452;54.174;12.092;2022-12-29T00:25:10;7.38;;;3.22;;
29504;SDS011;16452;54.174;12.092;2022-12-29T00:27:56;3.20;;;2.83;;
29504;SDS011;16452;54.174;12.092;2022-12-29T00:30:41;4.78;;;3.33;;
29504;SDS011;16452;54.174;12.092;2022-12-29T00:33:28;7.82;;;3.65;;
29504;SDS011;16452;54.174;12.092;2022-12-29T00:36:24;5.47;;;3.15;;
29504;SDS011;16452;54.174;12.092;2022-12-29T00:39:06;5.43;;;3.50;;
29504;SDS011;16452;54.174;12.092;2022-12-29T00:42:04;4.90;;;3.63;;
29504;SDS011;16452;54.174;12.092;2022-12-29T00:44:50;6.00;;;3.65;;
29504;SDS011;16452;54.174;12.092;2022-12-29T00:47:16;7.82;;;3.97;;
29504;SDS011;16452;54.174;12.092;2022-12-29T00:49:41;4.90;;;3.75;;
29504;SDS011;16452;54.174;12.092;2022-12-29T00:52:08;9.02;;;4.13;;
29504;SDS011;16452;54.174;12.092;2022-12-29T00:54:38;6.55;;;4.07;;
29504;SDS011;16452;54.174;12.092;2022-12-29T00:57:06;6.85;;;3.63;;
29504;SDS011;16452;54.174;12.092;2022-12-29T00:59:35;6.60;;;3.88;;
29504;SDS011;16452;54.174;12.092;2022-12-29T01:02:02;5.13;;;4.07;;
29504;SDS011;16452;54.174;12.092;2022-12-29T01:04:28;7.75;;;3.85;;
29504;SDS011;16452;54.174;12.092;2022-12-29T01:06:54;5.60;;;3.80;;
29504;SDS011;16452;54.174;12.092;2022-12-29T01:09:20;8.75;;;4.40;;
29504;SDS011;16452;54.174;12.092;2022-12-29T01:12:04;8.15;;;4.68;;
29504;SDS011;16452;54.174;12.092;2022-12-29T01:14:32;5.13;;;4.30;;
29504;SDS011;16452;54.174;12.092;2022-12-29T01:16:58;5.32;;;4.00;;
29504;SDS011;16452;54.174;12.092;2022-12-29T01:19:24;7.05;;;4.50;;
29504;SDS011;16452;54.174;12.092;2022-12-29T01:21:50;5.90;;;4.28;;
29504;SDS011;16452;54.174;12.092;2022-12-29T01:24:17;5.60;;;4.28;;
29504;SDS011;16452;54.174;12.092;2022-12-29T01:26:44;6.88;;;3.90;;
29504;SDS011;16452;54.174;12.092;2022-12-29T01:29:10;5.97;;;4.18;;
29504;SDS011;16452;54.174;12.092;2022-12-29T01:31:36;5.47;;;4.22;;
29504;SDS011;16452;54.174;12.092;2022-12-29T01:34:03;5.60;;;4.65;;
29504;SDS011;16452;54.174;12.092;2022-12-29T01:36:29;4.97;;;4.30;;
29504;SDS011;16452;54.174;12.092;2022-12-29T01:38:55;7.50;;;4.40;;
29504;SDS011;16452;54.174;12.092;2022-12-29T01:41:21;6.50;;;4.25;;
29504;SDS011;16452;54.174;12.092;2022-12-29T01:43:49;4.97;;;4.47;;
29504;SDS011;16452;54.174;12.092;2022-12-29T01:51:43;6.05;;;4.25;;
29504;SDS011;16452;54.174;12.092;2022-12-29T01:54:22;4.95;;;4.03;;
29504;SDS011;16452;54.174;12.092;2022-12-29T01:56:57;5.18;;;4.30;;
29504;SDS011;16452;54.174;12.092;2022-12-29T01:59:28;6.32;;;4.25;;
29504;SDS011;16452;54.174;12.092;2022-12-29T02:02:01;4.00;;;3.60;;
29504;SDS011;16452;54.174;12.092;2022-12-29T02:04:27;5.22;;;4.30;;
29504;SDS011;16452;54.174;12.092;2022-12-29T02:06:57;6.97;;;4.20;;
29504;SDS011;16452;54.174;12.092;2022-12-29T02:09:32;7.47;;;4.55;;
29504;SDS011;16452;54.174;12.092;2022-12-29T02:11:58;7.70;;;4.53;;
29504;SDS011;16452;54.174;12.092;2022-12-29T02:14:25;4.80;;;4.28;;
29504;SDS011;16452;54.174;12.092;2022-12-29T02:22:34;7.35;;;4.55;;
29504;SDS011;16452;54.174;12.092;2022-12-29T02:28:01;6.47;;;4.38;;
29504;SDS011;16452;54.174;12.092;2022-12-29T02:43:01;5.88;;;4.50;;
29504;SDS011;16452;54.174;12.092;2022-12-29T02:45:38;7.18;;;4.60;;
29504;SDS011;16452;54.174;12.092;2022-12-29T02:48:28;7.80;;;4.43;;
29504;SDS011;16452;54.174;12.092;2022-12-29T02:50:59;5.22;;;4.15;;
29504;SDS011;16452;54.174;12.092;2022-12-29T02:53:37;5.70;;;4.40;;
29504;SDS011;16452;54.174;12.092;2022-12-29T02:56:22;5.85;;;4.13;;
29504;SDS011;16452;54.174;12.092;2022-12-29T02:58:48;7.18;;;4.28;;
29504;SDS011;16452;54.174;12.092;2022-12-29T03:13:04;7.85;;;4.35;;
29504;SDS011;16452;54.174;12.092;2022-12-29T03:19:26;6.13;;;4.45;;
29504;SDS011;16452;54.174;12.092;2022-12-29T03:22:04;11.07;;;4.50;;
29504;SDS011;16452;54.174;12.092;2022-12-29T03:24:53;5.65;;;4.20;;
29504;SDS011;16452;54.174;12.092;2022-12-29T03:27:44;4.70;;;4.10;;
29504;SDS011;16452;54.174;12.092;2022-12-29T03:30:15;4.68;;;4.18;;
29504;SDS011;16452;54.174;12.092;2022-12-29T03:33:00;8.75;;;4.53;;
29504;SDS011;16452;54.174;12.092;2022-12-29T03:35:31;7.05;;;5.30;;
29504;SDS011;16452;54.174;12.092;2022-12-29T03:38:11;5.15;;;4.30;;
29504;SDS011;16452;54.174;12.092;2022-12-29T03:40:41;6.13;;;4.43;;
29504;SDS011;16452;54.174;12.092;2022-12-29T03:43:12;5.00;;;4.50;;
29504;SDS011;16452;54.174;12.092;2022-12-29T03:45:38;6.20;;;4.20;;
29504;SDS011;16452;54.174;12.092;2022-12-29T03:48:04;6.38;;;4.38;;
29504;SDS011;16452;54.174;12.092;2022-12-29T03:50:30;6.75;;;4.65;;
29504;SDS011;16452;54.174;12.092;2022-12-29T03:52:55;5.43;;;4.25;;
29504;SDS011;16452;54.174;12.092;2022-12-29T03:55:21;5.65;;;4.22;;
29504;SDS011;16452;54.174;12.092;2022-12-29T03:57:47;4.95;;;4.22;;
29504;SDS011;16452;54.174;12.092;2022-12-29T04:00:13;7.75;;;4.28;;
29504;SDS011;16452;54.174;12.092;2022-12-29T04:02:39;7.50;;;3.90;;
29504;SDS011;16452;54.174;12.092;2022-12-29T04:05:04;6.57;;;4.50;;
29504;SDS011;16452;54.174;12.092;2022-12-29T04:07:31;4.32;;;3.70;;
29504;SDS011;16452;54.174;12.092;2022-12-29T04:09:56;5.07;;;3.83;;
29504;SDS011;16452;54.174;12.092;2022-12-29T04:12:22;4.00;;;3.53;;
29504;SDS011;16452;54.174;12.092;2022-12-29T04:14:48;7.00;;;3.70;;
29504;SDS011;16452;54.174;12.092;2022-12-29T04:17:14;4.63;;;3.78;;
29504;SDS011;16452;54.174;12.092;2022-12-29T04:19:39;6.45;;;3.78;;
29504;SDS011;16452;54.174;12.092;2022-12-29T04:22:05;4.25;;;3.60;;
29504;SDS011;16452;54.174;12.092;2022-12-29T04:24:31;4.85;;;3.78;;
29504;SDS011;16452;54.174;12.092;2022-12-29T04:26:57;5.10;;;3.13;;
29504;SDS011;16452;54.174;12.092;2022-12-29T04:29:22;3.85;;;3.25;;
29504;SDS011;16452;54.174;12.092;2022-12-29T04:31:48;6.93;;;3.72;;
29504;SDS011;16452;54.174;12.092;2022-12-29T04:34:14;3.40;;;3.10;;
29504;SDS011;16452;54.174;12.092;2022-12-29T04:36:39;3.90;;;3.25;;
29504;SDS011;16452;54.174;12.092;2022-12-29T04:39:05;5.25;;;3.10;;
29504;SDS011;16452;54.174;12.092;2022-12-29T04:41:31;3.72;;;3.38;;
29504;SDS011;16452;54.174;12.092;2022-12-29T04:43:57;6.07;;;3.10;;
29504;SDS011;16452;54.174;12.092;2022-12-29T04:46:23;5.00;;;3.33;;
29504;SDS011;16452;54.174;12.092;2022-12-29T04:48:49;3.50;;;3.00;;
29504;SDS011;16452;54.174;12.092;2022-12-29T04:51:14;4.20;;;2.90;;
29504;SDS011;16452;54.174;12.092;2022-12-29T04:53:40;4.72;;;2.70;;
29504;SDS011;16452;54.174;12.092;2022-12-29T04:56:06;4.55;;;2.80;;
29504;SDS011;16452;54.174;12.092;2022-12-29T04:58:32;4.13;;;2.75;;
29504;SDS011;16452;54.174;12.092;2022-12-29T05:00:57;3.25;;;2.75;;
29504;SDS011;16452;54.174;12.092;2022-12-29T05:03:23;4.75;;;3.00;;
29504;SDS011;16452;54.174;12.092;2022-12-29T05:05:49;4.30;;;2.90;;
29504;SDS011;16452;54.174;12.092;2022-12-29T05:08:18;3.78;;;2.40;;
29504;SDS011;16452;54.174;12.092;2022-12-29T05:10:45;3.55;;;2.40;;
29504;SDS011;16452;54.174;12.092;2022-12-29T05:13:11;5.28;;;2.60;;
29504;SDS011;16452;54.174;12.092;2022-12-29T05:15:37;3.72;;;2.72;;
29504;SDS011;16452;54.174;12.092;2022-12-29T05:18:03;3.58;;;2.38;;
29504;SDS011;16452;54.174;12.092;2022-12-29T05:20:28;3.28;;;2.60;;
29504;SDS011;16452;54.174;12.092;2022-12-29T05:22:54;4.95;;;2.60;;
29504;SDS011;16452;54.174;12.092;2022-12-29T05:25:20;3.00;;;2.60;;
29504;SDS011;16452;54.174;12.092;2022-12-29T05:27:46;4.95;;;2.85;;
29504;SDS011;16452;54.174;12.092;2022-12-29T05:30:11;4.55;;;2.80;;
29504;SDS011;16452;54.174;12.092;2022-12-29T05:32:37;3.17;;;2.45;;
29504;SDS011;16452;54.174;12.092;2022-12-29T05:35:03;2.47;;;2.28;;
29504;SDS011;16452;54.174;12.092;2022-12-29T05:37:29;2.80;;;2.35;;
29504;SDS011;16452;54.174;12.092;2022-12-29T05:39:55;3.20;;;2.40;;
29504;SDS011;16452;54.174;12.092;2022-12-29T05:42:21;4.25;;;2.55;;
29504;SDS011;16452;54.174;12.092;2022-12-29T05:44:46;4.32;;;2.78;;
29504;SDS011;16452;54.174;12.092;2022-12-29T05:47:14;3.70;;;2.20;;
29504;SDS011;16452;54.174;12.092;2022-12-29T05:49:40;5.50;;;2.30;;
29504;SDS011;16452;54.174;12.092;2022-12-29T05:52:06;2.20;;;2.00;;
29504;SDS011;16452;54.174;12.092;2022-12-29T05:54:32;5.45;;;2.55;;
29504;SDS011;16452;54.174;12.092;2022-12-29T05:56:57;2.45;;;2.22;;
29504;SDS011;16452;54.174;12.092;2022-12-29T05:59:23;2.63;;;2.25;;
29504;SDS011;16452;54.174;12.092;2022-12-29T06:01:49;3.90;;;2.17;;
29504;SDS011;16452;54.174;12.092;2022-12-29T06:04:14;4.32;;;2.10;;
29504;SDS011;16452;54.174;12.092;2022-12-29T06:06:40;2.70;;;2.00;;
29504;SDS011;16452;54.174;12.092;2022-12-29T06:09:06;4.22;;;2.20;;
29504;SDS011;16452;54.174;12.092;2022-12-29T06:11:35;5.38;;;2.00;;
29504;SDS011;16452;54.174;12.092;2022-12-29T06:14:00;2.30;;;2.10;;
29504;SDS011;16452;54.174;12.092;2022-12-29T06:16:26;2.35;;;2.05;;
29504;SDS011;16452;54.174;12.092;2022-12-29T06:18:52;2.50;;;2.10;;
29504;SDS011;16452;54.174;12.092;2022-12-29T06:21:17;3.65;;;2.10;;
29504;SDS011;16452;54.174;12.092;2022-12-29T06:23:43;2.15;;;1.77;;
29504;SDS011;16452;54.174;12.092;2022-12-29T06:26:09;2.85;;;1.83;;
29504;SDS011;16452;54.174;12.092;2022-12-29T06:28:35;3.72;;;2.10;;
29504;SDS011;16452;54.174;12.092;2022-12-29T06:31:00;3.08;;;1.98;;
29504;SDS011;16452;54.174;12.092;2022-12-29T06:33:27;2.75;;;2.10;;
29504;SDS011;16452;54.174;12.092;2022-12-29T06:35:54;3.92;;;1.92;;
29504;SDS011;16452;54.174;12.092;2022-12-29T06:38:19;3.15;;;1.90;;
29504;SDS011;16452;54.174;12.092;2022-12-29T06:40:45;3.17;;;2.10;;
29504;SDS011;16452;54.174;12.092;2022-12-29T06:43:11;2.35;;;1.83;;
29504;SDS011;16452;54.174;12.092;2022-12-29T06:45:39;3.55;;;1.90;;
29504;SDS011;16452;54.174;12.092;2022-12-29T06:48:05;3.38;;;2.08;;
29504;SDS011;16452;54.174;12.092;2022-12-29T06:50:32;4.72;;;2.00;;
29504;SDS011;16452;54.174;12.092;2022-12-29T06:52:57;5.43;;;2.00;;
29504;SDS011;16452;54.174;12.092;2022-12-29T06:55:23;1.90;;;1.80;;
29504;SDS011;16452;54.174;12.092;2022-12-29T06:57:49;2.38;;;2.08;;
29504;SDS011;16452;54.174;12.092;2022-12-29T07:00:14;3.03;;;2.00;;
29504;SDS011;16452;54.174;12.092;2022-12-29T07:02:41;5.68;;;2.17;;
29504;SDS011;16452;54.174;12.092;2022-12-29T07:05:07;2.67;;;2.30;;
29504;SDS011;16452;54.174;12.092;2022-12-29T07:07:35;3.00;;;2.30;;
29504;SDS011;16452;54.174;12.092;2022-12-29T07:10:00;3.13;;;2.35;;
29504;SDS011;16452;54.174;12.092;2022-12-29T07:12:26;3.45;;;2.60;;
29504;SDS011;16452;54.174;12.092;2022-12-29T07:14:52;3.13;;;2.60;;
29504;SDS011;16452;54.174;12.092;2022-12-29T07:17:17;3.72;;;2.80;;
29504;SDS011;16452;54.174;12.092;2022-12-29T07:19:43;2.90;;;2.60;;
29504;SDS011;16452;54.174;12.092;2022-12-29T07:22:09;3.97;;;2.72;;
29504;SDS011;16452;54.174;12.092;2022-12-29T07:24:35;4.15;;;2.95;;
29504;SDS011;16452;54.174;12.092;2022-12-29T07:27:01;4.82;;;2.60;;
29504;SDS011;16452;54.174;12.092;2022-12-29T07:29:26;7.35;;;3.00;;
29504;SDS011;16452;54.174;12.092;2022-12-29T07:31:52;6.85;;;2.65;;
29504;SDS011;16452;54.174;12.092;2022-12-29T07:34:18;3.53;;;2.47;;
29504;SDS011;16452;54.174;12.092;2022-12-29T07:36:43;4.80;;;2.63;;
29504;SDS011;16452;54.174;12.092;2022-12-29T07:39:09;3.47;;;2.55;;
29504;SDS011;16452;54.174;12.092;2022-12-29T07:41:36;2.60;;;2.10;;
29504;SDS011;16452;54.174;12.092;2022-12-29T07:44:02;5.43;;;2.47;;
29504;SDS011;16452;54.174;12.092;2022-12-29T07:46:28;2.90;;;2.25;;
29504;SDS011;16452;54.174;12.092;2022-12-29T07:48:53;4.20;;;2.22;;
29504;SDS011;16452;54.174;12.092;2022-12-29T07:51:19;3.70;;;2.47;;
29504;SDS011;16452;54.174;12.092;2022-12-29T07:53:45;2.70;;;1.98;;
29504;SDS011;16452;54.174;12.092;2022-12-29T07:56:10;4.20;;;2.30;;
29504;SDS011;16452;54.174;12.092;2022-12-29T07:58:36;4.70;;;2.33;;
29504;SDS011;16452;54.174;12.092;2022-12-29T08:01:02;2.65;;;2.30;;
29504;SDS011;16452;54.174;12.092;2022-12-29T08:03:28;3.50;;;2.00;;
29504;SDS011;16452;54.174;12.092;2022-12-29T08:05:54;2.40;;;2.00;;
29504;SDS011;16452;54.174;12.092;2022-12-29T08:08:21;2.38;;;1.60;;
29504;SDS011;16452;54.174;12.092;2022-12-29T08:10:47;3.55;;;2.08;;
29504;SDS011;16452;54.174;12.092;2022-12-29T08:13:13;2.60;;;1.98;;
29504;SDS011;16452;54.174;12.092;2022-12-29T08:15:39;3.22;;;2.20;;
29504;SDS011;16452;54.174;12.092;2022-12-29T08:18:05;3.33;;;1.67;;
29504;SDS011;16452;54.174;12.092;2022-12-29T08:20:31;2.38;;;1.90;;
29504;SDS011;16452;54.174;12.092;2022-12-29T08:22:57;2.97;;;1.70;;
29504;SDS011;16452;54.174;12.092;2022-12-29T08:25:23;2.05;;;1.65;;
29504;SDS011;16452;54.174;12.092;2022-12-29T08:27:49;2.08;;;1.45;;
29504;SDS011;16452;54.174;12.092;2022-12-29T08:30:15;3.42;;;1.80;;
29504;SDS011;16452;54.174;12.092;2022-12-29T08:32:41;1.63;;;1.33;;
29504;SDS011;16452;54.174;12.092;2022-12-29T08:35:07;3.33;;;1.90;;
29504;SDS011;16452;54.174;12.092;2022-12-29T08:37:33;2.78;;;1.77;;
29504;SDS011;16452;54.174;12.092;2022-12-29T08:40:00;3.03;;;1.52;;
29504;SDS011;16452;54.174;12.092;2022-12-29T08:42:29;2.75;;;1.60;;
29504;SDS011;16452;54.174;12.092;2022-12-29T08:44:57;2.25;;;1.60;;
29504;SDS011;16452;54.174;12.092;2022-12-29T08:47:23;2.35;;;1.50;;
29504;SDS011;16452;54.174;12.092;2022-12-29T08:49:50;2.10;;;1.30;;
29504;SDS011;16452;54.174;12.092;2022-12-29T08:52:16;1.77;;;1.42;;
29504;SDS011;16452;54.174;12.092;2022-12-29T08:54:45;4.55;;;1.50;;
29504;SDS011;16452;54.174;12.092;2022-12-29T08:57:11;1.50;;;1.40;;
29504;SDS011;16452;54.174;12.092;2022-12-29T08:59:37;2.45;;;1.45;;
29504;SDS011;16452;54.174;12.092;2022-12-29T09:02:02;2.10;;;1.60;;
29504;SDS011;16452;54.174;12.092;2022-12-29T09:04:28;3.17;;;1.98;;
29504;SDS011;16452;54.174;12.092;2022-12-29T09:06:54;2.10;;;1.77;;
29504;SDS011;16452;54.174;12.092;2022-12-29T09:09:20;1.63;;;1.52;;
29504;SDS011;16452;54.174;12.092;2022-12-29T09:11:46;2.92;;;1.60;;
29504;SDS011;16452;54.174;12.092;2022-12-29T09:14:13;2.15;;;1.33;;
29504;SDS011;16452;54.174;12.092;2022-12-29T09:16:39;2.28;;;1.50;;
29504;SDS011;16452;54.174;12.092;2022-12-29T09:19:25;3.17;;;1.50;;
29504;SDS011;16452;54.174;12.092;2022-12-29T09:21:50;2.40;;;1.50;;
29504;SDS011;16452;54.174;12.092;2022-12-29T09:24:16;2.92;;;1.50;;
29504;SDS011;16452;54.174;12.092;2022-12-29T09:26:42;3.05;;;1.60;;
29504;SDS011;16452;54.174;12.092;2022-12-29T09:29:08;1.52;;;1.40;;
29504;SDS011;16452;54.174;12.092;2022-12-29T09:31:34;1.42;;;1.30;;
29504;SDS011;16452;54.174;12.092;2022-12-29T09:34:00;2.67;;;1.30;;
29504;SDS011;16452;54.174;12.092;2022-12-29T09:36:25;1.50;;;1.30;;
29504;SDS011;16452;54.174;12.092;2022-12-29T09:38:52;2.78;;;1.35;;
29504;SDS011;16452;54.174;12.092;2022-12-29T09:41:26;2.53;;;1.40;;
29504;SDS011;16452;54.174;12.092;2022-12-29T09:44:13;2.00;;;1.50;;
29504;SDS011;16452;54.174;12.092;2022-12-29T09:46:58;2.40;;;1.20;;
29504;SDS011;16452;54.174;12.092;2022-12-29T09:49:28;2.88;;;1.30;;
29504;SDS011;16452;54.174;12.092;2022-12-29T09:52:09;3.55;;;1.15;;
29504;SDS011;16452;54.174;12.092;2022-12-29T09:57:45;3.30;;;1.30;;
29504;SDS011;16452;54.174;12.092;2022-12-29T10:00:26;2.33;;;1.10;;
29504;SDS011;16452;54.174;12.092;2022-12-29T10:03:25;1.00;;;0.88;;
29504;SDS011;16452;54.174;12.092;2022-12-29T10:06:15;1.20;;;1.10;;
29504;SDS011;16452;54.174;12.092;2022-12-29T10:08:47;1.13;;;0.90;;
29504;SDS011;16452;54.174;12.092;2022-12-29T10:14:58;0.80;;;0.80;;
29504;SDS011;16452;54.174;12.092;2022-12-29T10:17:48;0.88;;;0.88;;
29504;SDS011;16452;54.174;12.092;2022-12-29T10:23:56;3.55;;;0.90;;
29504;SDS011;16452;54.174;12.092;2022-12-29T10:26:27;1.63;;;1.00;;
29504;SDS011;16452;54.174;12.092;2022-12-29T10:29:02;1.80;;;0.88;;
29504;SDS011;16452;54.174;12.092;2022-12-29T10:34:12;1.40;;;1.02;;
29504;SDS011;16452;54.174;12.092;2022-12-29T10:37:11;3.17;;;1.00;;
29504;SDS011;16452;54.174;12.092;2022-12-29T10:40:40;2.03;;;0.90;;
29504;SDS011;16452;54.174;12.092;2022-12-29T10:43:15;1.45;;;0.90;;
29504;SDS011;16452;54.174;12.092;2022-12-29T10:46:04;1.98;;;0.90;;
29504;SDS011;16452;54.174;12.092;2022-12-29T10:48:35;2.60;;;0.93;;
29504;SDS011;16452;54.174;12.092;2022-12-29T10:51:02;2.60;;;0.90;;
29504;SDS011;16452;54.174;12.092;2022-12-29T10:53:38;1.08;;;0.98;;
29504;SDS011;16452;54.174;12.092;2022-12-29T10:59:43;1.63;;;0.82;;
29504;SDS011;16452;54.174;12.092;2022-12-29T11:05:00;1.98;;;1.08;;
29504;SDS011;16452;54.174;12.092;2022-12-29T11:08:01;1.70;;;1.10;;
29504;SDS011;16452;54.174;12.092;2022-12-29T11:13:00;3.22;;;1.20;;
29504;SDS011;16452;54.174;12.092;2022-12-29T11:15:50;1.67;;;1.00;;
29504;SDS011;16452;54.174;12.092;2022-12-29T11:18:18;2.75;;;1.00;;
29504;SDS011;16452;54.174;12.092;2022-12-29T11:20:56;2.38;;;1.20;;
29504;SDS011;16452;54.174;12.092;2022-12-29T11:23:35;1.83;;;1.00;;
29504;SDS011;16452;54.174;12.092;2022-12-29T11:26:13;2.10;;;0.90;;
29504;SDS011;16452;54.174;12.092;2022-12-29T11:31:47;4.15;;;1.08;;
29504;SDS011;16452;54.174;12.092;2022-12-29T11:34:31;4.25;;;1.30;;
29504;SDS011;16452;54.174;12.092;2022-12-29T11:37:01;2.90;;;1.02;;
29504;SDS011;16452;54.174;12.092;2022-12-29T11:39:48;5.75;;;1.23;;
29504;SDS011;16452;54.174;12.092;2022-12-29T11:42:37;5.78;;;0.98;;
29504;SDS011;16452;54.174;12.092;2022-12-29T11:47:52;5.80;;;1.33;;
29504;SDS011;16452;54.174;12.092;2022-12-29T11:50:28;3.30;;;1.10;;
29504;SDS011;16452;54.174;12.092;2022-12-29T11:53:05;3.42;;;1.23;;
29504;SDS011;16452;54.174;12.092;2022-12-29T11:55:50;2.50;;;1.10;;
29504;SDS011;16452;54.174;12.092;2022-12-29T11:58:20;2.75;;;1.17;;
29504;SDS011;16452;54.174;12.092;2022-12-29T12:00:53;5.40;;;1.23;;
29504;SDS011;16452;54.174;12.092;2022-12-29T12:03:23;5.20;;;2.22;;
29504;SDS011;16452;54.174;12.092;2022-12-29T12:06:00;4.90;;;1.13;;
29504;SDS011;16452;54.174;12.092;2022-12-29T12:08:35;5.55;;;1.30;;
29504;SDS011;16452;54.174;12.092;2022-12-29T12:11:12;2.50;;;1.20;;
29504;SDS011;16452;54.174;12.092;2022-12-29T12:25:18;4.55;;;1.20;;
29504;SDS011;16452;54.174;12.092;2022-12-29T12:27:51;5.53;;;1.23;;
29504;SDS011;16452;54.174;12.092;2022-12-29T12:30:26;4.80;;;1.60;;
29504;SDS011;16452;54.174;12.092;2022-12-29T12:33:18;3.60;;;1.30;;
29504;SDS011;16452;54.174;12.092;2022-12-29T12:39:17;4.57;;;1.52;;
29504;SDS011;16452;54.174;12.092;2022-12-29T12:42:13;4.30;;;1.15;;
29504;SDS011;16452;54.174;12.092;2022-12-29T12:45:17;5.50;;;1.40;;
29504;SDS011;16452;54.174;12.092;2022-12-29T12:48:19;4.93;;;1.20;;
29504;SDS011;16452;54.174;12.092;2022-12-29T12:53:53;7.30;;;1.85;;
29504;SDS011;16452;54.174;12.092;2022-12-29T12:56:55;6.10;;;1.60;;
29504;SDS011;16452;54.174;12.092;2022-12-29T13:02:56;5.53;;;1.20;;
29504;SDS011;16452;54.174;12.092;2022-12-29T13:05:46;7.15;;;1.50;;
29504;SDS011;16452;54.174;12.092;2022-12-29T13:08:43;6.38;;;1.45;;
29504;SDS011;16452;54.174;12.092;2022-12-29T13:18:00;4.20;;;1.27;;
29504;SDS011;16452;54.174;12.092;2022-12-29T13:21:20;6.40;;;1.30;;
29504;SDS011;16452;54.174;12.092;2022-12-29T13:27:37;5.63;;;1.38;;
29504;SDS011;16452;54.174;12.092;2022-12-29T13:30:52;2.90;;;1.40;;
29504;SDS011;16452;54.174;12.092;2022-12-29T13:33:33;7.35;;;1.40;;
29504;SDS011;16452;54.174;12.092;2022-12-29T13:36:13;3.47;;;1.30;;
29504;SDS011;16452;54.174;12.092;2022-12-29T13:38:50;5.25;;;1.30;;
29504;SDS011;16452;54.174;12.092;2022-12-29T13:41:39;4.53;;;1.35;;
29504;SDS011;16452;54.174;12.092;2022-12-29T13:44:18;4.55;;;1.23;;
29504;SDS011;16452;54.174;12.092;2022-12-29T13:46:52;5.30;;;1.30;;
29504;SDS011;16452;54.174;12.092;2022-12-29T13:49:46;3.45;;;1.30;;
29504;SDS011;16452;54.174;12.092;2022-12-29T14:06:22;8.38;;;1.35;;
29504;SDS011;16452;54.174;12.092;2022-12-29T14:08:54;6.75;;;1.40;;
29504;SDS011;16452;54.174;12.092;2022-12-29T14:11:30;4.40;;;1.42;;
29504;SDS011;16452;54.174;12.092;2022-12-29T14:14:13;7.10;;;1.85;;
29504;SDS011;16452;54.174;12.092;2022-12-29T14:16:48;4.00;;;1.30;;
29504;SDS011;16452;54.174;12.092;2022-12-29T14:21:57;8.50;;;1.38;;
29504;SDS011;16452;54.174;12.092;2022-12-29T14:34:52;7.53;;;1.45;;
29504;SDS011;16452;54.174;12.092;2022-12-29T14:37:27;6.22;;;2.55;;
29504;SDS011;16452;54.174;12.092;2022-12-29T14:40:14;9.70;;;2.28;;
29504;SDS011;16452;54.174;12.092;2022-12-29T14:42:45;6.22;;;1.95;;
29504;SDS011;16452;54.174;12.092;2022-12-29T14:47:39;6.13;;;2.08;;
29504;SDS011;16452;54.174;12.092;2022-12-29T14:50:13;7.55;;;1.70;;
29504;SDS011;16452;54.174;12.092;2022-12-29T14:56:18;6.20;;;1.77;;
29504;SDS011;16452;54.174;12.092;2022-12-29T14:58:59;6.93;;;2.13;;
29504;SDS011;16452;54.174;12.092;2022-12-29T15:01:39;6.35;;;1.92;;
29504;SDS011;16452;54.174;12.092;2022-12-29T15:04:17;5.60;;;2.30;;
29504;SDS011;16452;54.174;12.092;2022-12-29T15:06:50;7.78;;;2.10;;
29504;SDS011;16452;54.174;12.092;2022-12-29T15:09:24;6.88;;;2.55;;
29504;SDS011;16452;54.174;12.092;2022-12-29T15:12:20;6.82;;;2.65;;
29504;SDS011;16452;54.174;12.092;2022-12-29T15:15:22;5.85;;;1.40;;
29504;SDS011;16452;54.174;12.092;2022-12-29T15:17:51;8.48;;;1.88;;
29504;SDS011;16452;54.174;12.092;2022-12-29T15:23:02;6.30;;;1.75;;
29504;SDS011;16452;54.174;12.092;2022-12-29T15:25:35;6.30;;;2.08;;
29504;SDS011;16452;54.174;12.092;2022-12-29T15:28:03;4.70;;;1.48;;
29504;SDS011;16452;54.174;12.092;2022-12-29T15:30:31;6.10;;;1.70;;
29504;SDS011;16452;54.174;12.092;2022-12-29T15:32:57;6.13;;;1.85;;
29504;SDS011;16452;54.174;12.092;2022-12-29T15:38:15;7.05;;;1.58;;
29504;SDS011;16452;54.174;12.092;2022-12-29T15:41:00;8.90;;;1.95;;
29504;SDS011;16452;54.174;12.092;2022-12-29T15:46:17;5.60;;;1.40;;
29504;SDS011;16452;54.174;12.092;2022-12-29T15:48:43;5.72;;;1.90;;
29504;SDS011;16452;54.174;12.092;2022-12-29T15:51:15;7.60;;;1.80;;
29504;SDS011;16452;54.174;12.092;2022-12-29T15:53:53;3.72;;;1.65;;
29504;SDS011;16452;54.174;12.092;2022-12-29T15:56:19;5.18;;;1.50;;
29504;SDS011;16452;54.174;12.092;2022-12-29T15:58:49;5.53;;;2.08;;
29504;SDS011;16452;54.174;12.092;2022-12-29T16:01:30;9.30;;;2.22;;
29504;SDS011;16452;54.174;12.092;2022-12-29T16:04:03;5.60;;;1.45;;
29504;SDS011;16452;54.174;12.092;2022-12-29T16:06:36;5.10;;;1.92;;
29504;SDS011;16452;54.174;12.092;2022-12-29T16:09:05;5.05;;;1.58;;
29504;SDS011;16452;54.174;12.092;2022-12-29T16:11:44;5.60;;;2.35;;
29504;SDS011;16452;54.174;12.092;2022-12-29T16:14:21;6.95;;;2.17;;
29504;SDS011;16452;54.174;12.092;2022-12-29T16:17:02;5.18;;;1.70;;
29504;SDS011;16452;54.174;12.092;2022-12-29T16:19:32;8.27;;;1.98;;
29504;SDS011;16452;54.174;12.092;2022-12-29T16:22:09;7.60;;;3.65;;
29504;SDS011;16452;54.174;12.092;2022-12-29T16:24:42;12.10;;;5.72;;
29504;SDS011;16452;54.174;12.092;2022-12-29T16:27:17;13.25;;;5.57;;
29504;SDS011;16452;54.174;12.092;2022-12-29T16:29:49;8.13;;;3.53;;
29504;SDS011;16452;54.174;12.092;2022-12-29T16:32:27;7.45;;;1.60;;
29504;SDS011;16452;54.174;12.092;2022-12-29T16:37:42;6.53;;;2.25;;
29504;SDS011;16452;54.174;12.092;2022-12-29T16:43:03;6.07;;;1.67;;
29504;SDS011;16452;54.174;12.092;2022-12-29T16:50:39;6.63;;;1.55;;
29504;SDS011;16452;54.174;12.092;2022-12-29T16:53:21;7.85;;;1.92;;
29504;SDS011;16452;54.174;12.092;2022-12-29T16:55:51;5.57;;;1.75;;
29504;SDS011;16452;54.174;12.092;2022-12-29T16:58:24;6.20;;;1.58;;
29504;SDS011;16452;54.174;12.092;2022-12-29T17:00:57;8.63;;;2.20;;
29504;SDS011;16452;54.174;12.092;2022-12-29T17:03:32;6.82;;;1.60;;
29504;SDS011;16452;54.174;12.092;2022-12-29T17:06:09;6.25;;;2.55;;
29504;SDS011;16452;54.174;12.092;2022-12-29T17:08:42;6.93;;;2.40;;
29504;SDS011;16452;54.174;12.092;2022-12-29T17:11:17;8.98;;;2.28;;
29504;SDS011;16452;54.174;12.092;2022-12-29T17:14:26;4.63;;;1.60;;
29504;SDS011;16452;54.174;12.092;2022-12-29T17:17:21;7.88;;;1.52;;
29504;SDS011;16452;54.174;12.092;2022-12-29T17:22:43;6.90;;;1.70;;
29504;SDS011;16452;54.174;12.092;2022-12-29T17:25:14;6.25;;;1.55;;
29504;SDS011;16452;54.174;12.092;2022-12-29T17:28:02;8.25;;;1.95;;
29504;SDS011;16452;54.174;12.092;2022-12-29T17:30:43;9.10;;;2.00;;
29504;SDS011;16452;54.174;12.092;2022-12-29T17:33:10;7.53;;;1.92;;
29504;SDS011;16452;54.174;12.092;2022-12-29T17:35:39;7.88;;;2.03;;
29504;SDS011;16452;54.174;12.092;2022-12-29T17:38:16;6.53;;;2.38;;
29504;SDS011;16452;54.174;12.092;2022-12-29T17:40:47;6.60;;;1.92;;